sensor_id;sensor_type;location;lat;lon;timestamp;pressure;altitude;pressure_sealevel;temperature;humidity
62038;BME280;47991;42.974;12.082;2022-08-06T00:01:56;97570.80;;;23.56;53.63
62038;BME280;47991;42.974;12.082;2022-08-06T00:04:24;97566.82;;;23.52;53.71
62038;BME280;47991;42.974;12.082;2022-08-06T00:06:51;97566.91;;;23.49;53.35
62038;BME280;47991;42.974;12.082;2022-08-06T00:09:19;97565.50;;;23.48;53.64
62038;BME280;47991;42.974;12.082;2022-08-06T00:11:47;97567.91;;;23.35;54.34
62038;BME280;47991;42.974;12.082;2022-08-06T00:14:15;97564.55;;;23.34;53.44
62038;BME280;47991;42.974;12.082;2022-08-06T00:16:42;97568.13;;;23.32;53.66
62038;BME280;47991;42.974;12.082;2022-08-06T00:19:11;97572.92;;;23.24;53.91
62038;BME280;47991;42.974;12.082;2022-08-06T00:21:38;97572.05;;;23.24;54.02
62038;BME280;47991;42.974;12.082;2022-08-06T00:24:06;97573.96;;;23.16;54.30
62038;BME280;47991;42.974;12.082;2022-08-06T00:26:34;97567.52;;;23.09;54.21
62038;BME280;47991;42.974;12.082;2022-08-06T00:29:01;97570.84;;;23.01;54.50
62038;BME280;47991;42.974;12.082;2022-08-06T00:31:29;97574.27;;;22.98;54.77
62038;BME280;47991;42.974;12.082;2022-08-06T00:33:58;97575.07;;;22.98;54.58
62038;BME280;47991;42.974;12.082;2022-08-06T00:36:29;97572.70;;;22.85;55.33
62038;BME280;47991;42.974;12.082;2022-08-06T00:38:59;97580.73;;;22.79;55.48
62038;BME280;47991;42.974;12.082;2022-08-06T00:41:28;97575.05;;;22.83;55.77
62038;BME280;47991;42.974;12.082;2022-08-06T00:43:58;97573.54;;;22.77;55.56
62038;BME280;47991;42.974;12.082;2022-08-06T00:46:26;97577.15;;;22.74;55.80
62038;BME280;47991;42.974;12.082;2022-08-06T00:48:53;97578.27;;;22.63;56.01
62038;BME280;47991;42.974;12.082;2022-08-06T00:51:22;97568.43;;;22.64;56.55
62038;BME280;47991;42.974;12.082;2022-08-06T00:53:50;97568.26;;;22.64;56.53
62038;BME280;47991;42.974;12.082;2022-08-06T00:56:18;97566.44;;;22.57;56.72
62038;BME280;47991;42.974;12.082;2022-08-06T00:58:46;97566.11;;;22.53;56.95
62038;BME280;47991;42.974;12.082;2022-08-06T01:01:13;97567.67;;;22.56;56.92
62038;BME280;47991;42.974;12.082;2022-08-06T01:03:41;97562.39;;;22.50;57.32
62038;BME280;47991;42.974;12.082;2022-08-06T01:06:08;97564.79;;;22.47;57.82
62038;BME280;47991;42.974;12.082;2022-08-06T01:08:36;97564.98;;;22.42;58.18
62038;BME280;47991;42.974;12.082;2022-08-06T01:11:03;97568.92;;;22.42;58.41
62038;BME280;47991;42.974;12.082;2022-08-06T01:13:35;97565.25;;;22.46;57.80
62038;BME280;47991;42.974;12.082;2022-08-06T01:16:11;97564.12;;;22.44;58.39
62038;BME280;47991;42.974;12.082;2022-08-06T01:18:47;97563.08;;;22.34;58.24
62038;BME280;47991;42.974;12.082;2022-08-06T01:29:51;97548.76;;;22.33;58.70
62038;BME280;47991;42.974;12.082;2022-08-06T01:32:26;97549.70;;;22.35;58.74
62038;BME280;47991;42.974;12.082;2022-08-06T01:35:02;97553.80;;;22.38;58.21
62038;BME280;47991;42.974;12.082;2022-08-06T01:37:36;97554.09;;;22.32;59.14
62038;BME280;47991;42.974;12.082;2022-08-06T01:40:15;97555.89;;;22.22;58.98
62038;BME280;47991;42.974;12.082;2022-08-06T01:42:44;97557.74;;;22.06;59.25
62038;BME280;47991;42.974;12.082;2022-08-06T01:45:15;97561.02;;;21.96;60.16
62038;BME280;47991;42.974;12.082;2022-08-06T01:47:47;97560.31;;;21.93;60.65
62038;BME280;47991;42.974;12.082;2022-08-06T01:50:21;97557.08;;;22.00;59.88
62038;BME280;47991;42.974;12.082;2022-08-06T01:52:50;97552.73;;;21.98;60.43
62038;BME280;47991;42.974;12.082;2022-08-06T01:55:18;97551.71;;;21.93;60.84
62038;BME280;47991;42.974;12.082;2022-08-06T01:57:51;97552.26;;;21.95;60.56
62038;BME280;47991;42.974;12.082;2022-08-06T02:00:19;97551.63;;;21.96;60.71
62038;BME280;47991;42.974;12.082;2022-08-06T02:02:47;97553.42;;;21.96;60.82
62038;BME280;47991;42.974;12.082;2022-08-06T02:05:19;97552.86;;;21.90;60.87
62038;BME280;47991;42.974;12.082;2022-08-06T02:07:49;97548.52;;;21.86;61.30
62038;BME280;47991;42.974;12.082;2022-08-06T02:10:19;97549.01;;;21.77;61.21
62038;BME280;47991;42.974;12.082;2022-08-06T02:12:48;97550.92;;;21.63;61.81
62038;BME280;47991;42.974;12.082;2022-08-06T02:15:23;97550.77;;;21.56;61.69
62038;BME280;47991;42.974;12.082;2022-08-06T02:17:53;97544.86;;;21.54;61.55
62038;BME280;47991;42.974;12.082;2022-08-06T02:20:32;97542.20;;;21.55;61.19
62038;BME280;47991;42.974;12.082;2022-08-06T02:23:02;97542.05;;;21.64;61.12
62038;BME280;47991;42.974;12.082;2022-08-06T02:25:31;97542.75;;;21.74;61.21
62038;BME280;47991;42.974;12.082;2022-08-06T02:28:02;97542.35;;;21.79;60.83
62038;BME280;47991;42.974;12.082;2022-08-06T02:30:35;97542.17;;;21.72;60.97
62038;BME280;47991;42.974;12.082;2022-08-06T02:33:05;97540.34;;;21.65;61.03
62038;BME280;47991;42.974;12.082;2022-08-06T02:35:38;97539.20;;;21.57;61.73
62038;BME280;47991;42.974;12.082;2022-08-06T02:38:29;97540.13;;;21.49;62.17
62038;BME280;47991;42.974;12.082;2022-08-06T02:44:18;97543.23;;;21.36;62.31
62038;BME280;47991;42.974;12.082;2022-08-06T02:46:52;97538.52;;;21.27;63.02
62038;BME280;47991;42.974;12.082;2022-08-06T02:49:26;97539.70;;;21.26;62.50
62038;BME280;47991;42.974;12.082;2022-08-06T02:52:08;97540.98;;;21.26;62.55
62038;BME280;47991;42.974;12.082;2022-08-06T02:54:43;97545.04;;;21.32;62.54
62038;BME280;47991;42.974;12.082;2022-08-06T02:57:16;97541.95;;;21.34;62.03
62038;BME280;47991;42.974;12.082;2022-08-06T02:59:47;97543.52;;;21.44;62.65
62038;BME280;47991;42.974;12.082;2022-08-06T03:02:16;97535.48;;;21.41;62.35
62038;BME280;47991;42.974;12.082;2022-08-06T03:04:48;97531.34;;;21.34;61.67
62038;BME280;47991;42.974;12.082;2022-08-06T03:07:17;97534.28;;;21.26;62.23
62038;BME280;47991;42.974;12.082;2022-08-06T03:09:47;97530.16;;;21.19;61.95
62038;BME280;47991;42.974;12.082;2022-08-06T03:12:15;97525.84;;;21.07;62.38
62038;BME280;47991;42.974;12.082;2022-08-06T03:14:44;97520.85;;;20.95;62.53
62038;BME280;47991;42.974;12.082;2022-08-06T03:17:12;97519.52;;;20.88;62.60
62038;BME280;47991;42.974;12.082;2022-08-06T03:19:42;97518.60;;;20.88;63.23
62038;BME280;47991;42.974;12.082;2022-08-06T03:22:11;97519.57;;;20.90;62.52
62038;BME280;47991;42.974;12.082;2022-08-06T03:24:41;97519.59;;;20.89;63.67
62038;BME280;47991;42.974;12.082;2022-08-06T03:27:09;97523.05;;;20.82;64.44
62038;BME280;47991;42.974;12.082;2022-08-06T03:29:39;97521.33;;;20.73;64.20
62038;BME280;47991;42.974;12.082;2022-08-06T03:32:08;97521.46;;;20.74;64.08
62038;BME280;47991;42.974;12.082;2022-08-06T03:34:36;97522.73;;;20.74;64.16
62038;BME280;47991;42.974;12.082;2022-08-06T03:37:05;97519.02;;;20.75;63.87
62038;BME280;47991;42.974;12.082;2022-08-06T03:39:37;97520.27;;;20.78;63.97
62038;BME280;47991;42.974;12.082;2022-08-06T03:42:06;97521.84;;;20.71;64.77
62038;BME280;47991;42.974;12.082;2022-08-06T03:44:34;97524.31;;;20.67;65.00
62038;BME280;47991;42.974;12.082;2022-08-06T03:47:09;97524.92;;;20.68;64.18
62038;BME280;47991;42.974;12.082;2022-08-06T03:49:42;97529.55;;;20.66;63.95
62038;BME280;47991;42.974;12.082;2022-08-06T03:52:16;97526.03;;;20.78;63.35
62038;BME280;47991;42.974;12.082;2022-08-06T03:54:48;97525.48;;;20.83;63.01
62038;BME280;47991;42.974;12.082;2022-08-06T03:57:20;97523.64;;;20.91;62.58
62038;BME280;47991;42.974;12.082;2022-08-06T03:59:53;97518.45;;;20.95;62.24
62038;BME280;47991;42.974;12.082;2022-08-06T04:02:33;97520.45;;;20.92;62.25
62038;BME280;47991;42.974;12.082;2022-08-06T04:05:02;97526.14;;;20.88;62.37
62038;BME280;47991;42.974;12.082;2022-08-06T04:07:31;97534.20;;;20.61;64.39
62038;BME280;47991;42.974;12.082;2022-08-06T04:10:00;97530.17;;;20.48;64.12
62038;BME280;47991;42.974;12.082;2022-08-06T04:12:29;97533.65;;;20.44;64.16
62038;BME280;47991;42.974;12.082;2022-08-06T04:14:59;97529.80;;;20.43;64.18
62038;BME280;47991;42.974;12.082;2022-08-06T04:17:27;97528.71;;;20.40;63.70
62038;BME280;47991;42.974;12.082;2022-08-06T04:19:55;97529.77;;;20.36;63.96
62038;BME280;47991;42.974;12.082;2022-08-06T04:22:23;97534.27;;;20.35;63.99
62038;BME280;47991;42.974;12.082;2022-08-06T04:24:50;97534.14;;;20.45;63.68
62038;BME280;47991;42.974;12.082;2022-08-06T04:27:19;97542.70;;;20.51;64.20
62038;BME280;47991;42.974;12.082;2022-08-06T04:29:47;97547.91;;;20.43;64.44
62038;BME280;47991;42.974;12.082;2022-08-06T04:32:18;97553.19;;;20.57;63.63
62038;BME280;47991;42.974;12.082;2022-08-06T04:34:46;97551.33;;;20.66;63.11
62038;BME280;47991;42.974;12.082;2022-08-06T04:37:14;97551.76;;;20.57;63.66
62038;BME280;47991;42.974;12.082;2022-08-06T04:39:43;97550.80;;;20.50;63.54
62038;BME280;47991;42.974;12.082;2022-08-06T04:42:11;97554.77;;;20.45;63.92
62038;BME280;47991;42.974;12.082;2022-08-06T04:44:39;97564.94;;;20.41;64.40
62038;BME280;47991;42.974;12.082;2022-08-06T04:47:07;97566.61;;;20.43;64.27
62038;BME280;47991;42.974;12.082;2022-08-06T04:49:35;97567.39;;;20.40;64.84
62038;BME280;47991;42.974;12.082;2022-08-06T04:52:02;97565.65;;;20.49;64.60
62038;BME280;47991;42.974;12.082;2022-08-06T04:54:30;97563.49;;;20.67;63.93
62038;BME280;47991;42.974;12.082;2022-08-06T04:56:57;97565.40;;;20.82;63.35
62038;BME280;47991;42.974;12.082;2022-08-06T04:59:25;97564.40;;;21.01;63.15
62038;BME280;47991;42.974;12.082;2022-08-06T05:01:52;97561.98;;;21.36;62.72
62038;BME280;47991;42.974;12.082;2022-08-06T05:04:19;97559.45;;;21.81;61.55
62038;BME280;47991;42.974;12.082;2022-08-06T05:07:01;97556.31;;;22.19;60.75
62038;BME280;47991;42.974;12.082;2022-08-06T05:09:32;97557.34;;;22.54;60.18
62038;BME280;47991;42.974;12.082;2022-08-06T05:12:03;97552.39;;;22.77;59.33
62038;BME280;47991;42.974;12.082;2022-08-06T05:17:42;97533.88;;;23.32;58.58
62038;BME280;47991;42.974;12.082;2022-08-06T05:20:17;97541.29;;;23.51;57.83
62038;BME280;47991;42.974;12.082;2022-08-06T05:22:49;97544.05;;;24.06;57.02
62038;BME280;47991;42.974;12.082;2022-08-06T05:25:16;97543.08;;;24.37;56.28
62038;BME280;47991;42.974;12.082;2022-08-06T05:27:44;97542.00;;;24.50;56.03
62038;BME280;47991;42.974;12.082;2022-08-06T05:30:12;97540.27;;;25.14;55.03
62038;BME280;47991;42.974;12.082;2022-08-06T05:32:47;97538.73;;;26.22;52.80
62038;BME280;47991;42.974;12.082;2022-08-06T05:35:15;97533.53;;;27.34;50.67
62038;BME280;47991;42.974;12.082;2022-08-06T05:37:42;97532.81;;;28.27;47.45
62038;BME280;47991;42.974;12.082;2022-08-06T05:40:10;97529.73;;;29.31;45.18
62038;BME280;47991;42.974;12.082;2022-08-06T05:42:38;97532.40;;;30.24;42.99
62038;BME280;47991;42.974;12.082;2022-08-06T05:45:09;97532.69;;;31.16;41.25
62038;BME280;47991;42.974;12.082;2022-08-06T05:47:39;97531.85;;;31.88;39.65
62038;BME280;47991;42.974;12.082;2022-08-06T05:50:11;97536.36;;;32.71;37.84
62038;BME280;47991;42.974;12.082;2022-08-06T05:52:53;97535.26;;;33.50;37.01
62038;BME280;47991;42.974;12.082;2022-08-06T05:55:30;97531.73;;;34.22;35.71
62038;BME280;47991;42.974;12.082;2022-08-06T05:58:04;97536.69;;;34.70;34.98
62038;BME280;47991;42.974;12.082;2022-08-06T06:00:33;97536.23;;;35.26;33.92
62038;BME280;47991;42.974;12.082;2022-08-06T06:03:04;97534.95;;;35.40;32.94
62038;BME280;47991;42.974;12.082;2022-08-06T06:05:35;97537.77;;;35.36;33.83
62038;BME280;47991;42.974;12.082;2022-08-06T06:08:04;97537.48;;;35.62;33.11
62038;BME280;47991;42.974;12.082;2022-08-06T06:10:33;97538.45;;;36.08;33.17
62038;BME280;47991;42.974;12.082;2022-08-06T06:13:02;97535.30;;;36.10;31.50
62038;BME280;47991;42.974;12.082;2022-08-06T06:15:33;97541.08;;;35.44;31.49
62038;BME280;47991;42.974;12.082;2022-08-06T06:26:37;97548.14;;;35.10;31.11
62038;BME280;47991;42.974;12.082;2022-08-06T06:32:27;97553.02;;;34.65;31.49
62038;BME280;47991;42.974;12.082;2022-08-06T06:35:03;97549.80;;;33.80;32.52
62038;BME280;47991;42.974;12.082;2022-08-06T06:46:27;97565.32;;;30.04;39.22
62038;BME280;47991;42.974;12.082;2022-08-06T06:49:21;97562.72;;;29.94;39.68
62038;BME280;47991;42.974;12.082;2022-08-06T06:52:05;97562.14;;;29.93;39.77
62038;BME280;47991;42.974;12.082;2022-08-06T06:54:47;97563.73;;;29.78;40.16
62038;BME280;47991;42.974;12.082;2022-08-06T06:57:20;97559.55;;;29.47;40.84
62038;BME280;47991;42.974;12.082;2022-08-06T06:59:51;97560.03;;;29.59;40.45
62038;BME280;47991;42.974;12.082;2022-08-06T07:02:23;97558.16;;;29.18;40.95
62038;BME280;47991;42.974;12.082;2022-08-06T07:04:55;97558.14;;;29.23;41.05
62038;BME280;47991;42.974;12.082;2022-08-06T07:07:24;97556.44;;;29.33;40.93
62038;BME280;47991;42.974;12.082;2022-08-06T07:09:53;97559.02;;;29.34;40.87
62038;BME280;47991;42.974;12.082;2022-08-06T07:12:23;97561.64;;;29.59;40.41
62038;BME280;47991;42.974;12.082;2022-08-06T07:14:53;97561.80;;;29.61;40.53
62038;BME280;47991;42.974;12.082;2022-08-06T07:17:24;97562.20;;;29.69;40.20
62038;BME280;47991;42.974;12.082;2022-08-06T07:19:53;97563.55;;;29.52;40.64
62038;BME280;47991;42.974;12.082;2022-08-06T07:22:22;97561.14;;;29.37;40.95
62038;BME280;47991;42.974;12.082;2022-08-06T07:24:52;97561.15;;;29.10;41.53
62038;BME280;47991;42.974;12.082;2022-08-06T07:27:21;97558.23;;;28.93;41.87
62038;BME280;47991;42.974;12.082;2022-08-06T07:29:49;97555.52;;;28.99;42.55
62038;BME280;47991;42.974;12.082;2022-08-06T07:32:17;97560.25;;;29.37;41.21
62038;BME280;47991;42.974;12.082;2022-08-06T07:34:45;97563.13;;;29.71;41.03
62038;BME280;47991;42.974;12.082;2022-08-06T07:37:13;97562.55;;;29.86;40.25
62038;BME280;47991;42.974;12.082;2022-08-06T07:39:43;97558.45;;;29.85;40.30
62038;BME280;47991;42.974;12.082;2022-08-06T07:42:13;97560.77;;;29.77;40.63
62038;BME280;47991;42.974;12.082;2022-08-06T07:44:49;97557.73;;;29.87;40.31
62038;BME280;47991;42.974;12.082;2022-08-06T07:47:25;97554.70;;;29.93;40.08
62038;BME280;47991;42.974;12.082;2022-08-06T07:49:55;97560.29;;;30.00;39.74
62038;BME280;47991;42.974;12.082;2022-08-06T07:52:23;97561.36;;;29.94;40.12
62038;BME280;47991;42.974;12.082;2022-08-06T07:54:54;97562.38;;;29.98;40.14
62038;BME280;47991;42.974;12.082;2022-08-06T07:57:24;97562.39;;;30.35;39.44
62038;BME280;47991;42.974;12.082;2022-08-06T07:59:52;97562.90;;;30.56;38.91
62038;BME280;47991;42.974;12.082;2022-08-06T08:02:20;97562.48;;;30.95;38.17
62038;BME280;47991;42.974;12.082;2022-08-06T08:04:48;97562.27;;;31.21;37.79
62038;BME280;47991;42.974;12.082;2022-08-06T08:07:36;97552.44;;;31.52;36.93
62038;BME280;47991;42.974;12.082;2022-08-06T08:10:04;97553.23;;;31.43;36.99
62038;BME280;47991;42.974;12.082;2022-08-06T08:12:33;97551.42;;;31.28;36.75
62038;BME280;47991;42.974;12.082;2022-08-06T08:15:06;97552.19;;;31.27;37.29
62038;BME280;47991;42.974;12.082;2022-08-06T08:17:35;97545.64;;;31.69;36.32
62038;BME280;47991;42.974;12.082;2022-08-06T08:20:06;97545.10;;;31.41;36.23
62038;BME280;47991;42.974;12.082;2022-08-06T08:22:34;97542.36;;;31.27;36.13
62038;BME280;47991;42.974;12.082;2022-08-06T08:25:02;97536.59;;;31.55;36.09
62038;BME280;47991;42.974;12.082;2022-08-06T08:27:30;97539.89;;;31.99;35.21
62038;BME280;47991;42.974;12.082;2022-08-06T08:29:57;97534.55;;;32.40;34.71
62038;BME280;47991;42.974;12.082;2022-08-06T08:32:25;97533.30;;;32.57;32.29
62038;BME280;47991;42.974;12.082;2022-08-06T08:34:53;97536.36;;;32.69;32.51
62038;BME280;47991;42.974;12.082;2022-08-06T08:37:21;97534.59;;;32.91;32.27
62038;BME280;47991;42.974;12.082;2022-08-06T08:39:48;97536.25;;;33.19;32.12
62038;BME280;47991;42.974;12.082;2022-08-06T08:42:23;97532.35;;;33.54;31.47
62038;BME280;47991;42.974;12.082;2022-08-06T08:44:56;97535.77;;;33.80;30.33
62038;BME280;47991;42.974;12.082;2022-08-06T08:47:25;97533.67;;;33.76;28.82
62038;BME280;47991;42.974;12.082;2022-08-06T08:49:57;97534.46;;;33.58;28.34
62038;BME280;47991;42.974;12.082;2022-08-06T08:52:32;97534.60;;;33.60;28.44
62038;BME280;47991;42.974;12.082;2022-08-06T08:55:03;97537.48;;;33.73;27.40
62038;BME280;47991;42.974;12.082;2022-08-06T08:57:32;97539.72;;;33.77;27.44
62038;BME280;47991;42.974;12.082;2022-08-06T09:00:02;97538.23;;;34.10;27.86
62038;BME280;47991;42.974;12.082;2022-08-06T09:02:30;97537.74;;;34.48;28.12
62038;BME280;47991;42.974;12.082;2022-08-06T09:04:59;97540.67;;;34.68;26.91
62038;BME280;47991;42.974;12.082;2022-08-06T09:07:27;97540.05;;;34.85;27.37
62038;BME280;47991;42.974;12.082;2022-08-06T09:09:56;97540.95;;;34.93;25.12
62038;BME280;47991;42.974;12.082;2022-08-06T09:12:24;97542.35;;;34.94;24.11
62038;BME280;47991;42.974;12.082;2022-08-06T09:14:51;97538.63;;;34.81;22.62
62038;BME280;47991;42.974;12.082;2022-08-06T09:17:19;97536.70;;;34.58;23.43
62038;BME280;47991;42.974;12.082;2022-08-06T09:19:47;97537.45;;;34.39;23.94
62038;BME280;47991;42.974;12.082;2022-08-06T09:22:16;97539.34;;;33.84;24.00
62038;BME280;47991;42.974;12.082;2022-08-06T09:24:43;97537.73;;;33.55;24.85
62038;BME280;47991;42.974;12.082;2022-08-06T09:27:14;97538.34;;;33.88;24.75
62038;BME280;47991;42.974;12.082;2022-08-06T09:29:59;97540.04;;;34.13;23.72
62038;BME280;47991;42.974;12.082;2022-08-06T09:32:46;97544.13;;;34.54;23.94
62038;BME280;47991;42.974;12.082;2022-08-06T09:35:29;97533.53;;;34.66;22.77
62038;BME280;47991;42.974;12.082;2022-08-06T09:38:01;97537.54;;;34.99;22.64
62038;BME280;47991;42.974;12.082;2022-08-06T09:40:29;97532.40;;;35.36;22.14
62038;BME280;47991;42.974;12.082;2022-08-06T09:42:56;97528.43;;;35.56;20.45
62038;BME280;47991;42.974;12.082;2022-08-06T09:45:25;97530.48;;;35.42;19.83
62038;BME280;47991;42.974;12.082;2022-08-06T09:48:06;97531.61;;;35.39;20.53
62038;BME280;47991;42.974;12.082;2022-08-06T09:50:40;97523.44;;;35.78;19.83
62038;BME280;47991;42.974;12.082;2022-08-06T09:53:07;97524.86;;;35.94;17.93
62038;BME280;47991;42.974;12.082;2022-08-06T09:55:35;97524.62;;;36.16;18.43
62038;BME280;47991;42.974;12.082;2022-08-06T09:58:03;97527.37;;;36.46;19.47
62038;BME280;47991;42.974;12.082;2022-08-06T10:00:33;97523.51;;;36.60;18.22
62038;BME280;47991;42.974;12.082;2022-08-06T10:03:04;97522.77;;;36.80;18.48
62038;BME280;47991;42.974;12.082;2022-08-06T10:05:32;97525.79;;;36.94;18.78
62038;BME280;47991;42.974;12.082;2022-08-06T10:08:11;97521.19;;;37.05;17.44
62038;BME280;47991;42.974;12.082;2022-08-06T10:10:47;97522.35;;;37.13;17.48
62038;BME280;47991;42.974;12.082;2022-08-06T10:13:21;97529.91;;;37.18;17.41
62038;BME280;47991;42.974;12.082;2022-08-06T10:15:55;97526.43;;;36.85;17.17
62038;BME280;47991;42.974;12.082;2022-08-06T10:18:40;97525.42;;;36.47;17.54
62038;BME280;47991;42.974;12.082;2022-08-06T10:21:14;97523.50;;;36.45;16.90
62038;BME280;47991;42.974;12.082;2022-08-06T10:23:49;97518.20;;;36.37;16.50
62038;BME280;47991;42.974;12.082;2022-08-06T10:26:18;97520.86;;;36.51;16.91
62038;BME280;47991;42.974;12.082;2022-08-06T10:28:48;97519.39;;;36.86;18.08
62038;BME280;47991;42.974;12.082;2022-08-06T10:31:17;97519.67;;;36.90;17.07
62038;BME280;47991;42.974;12.082;2022-08-06T10:33:55;97515.73;;;36.39;16.64
62038;BME280;47991;42.974;12.082;2022-08-06T10:36:28;97514.02;;;36.24;17.17
62038;BME280;47991;42.974;12.082;2022-08-06T10:38:59;97515.02;;;36.62;17.55
62038;BME280;47991;42.974;12.082;2022-08-06T10:41:27;97513.21;;;36.74;16.41
62038;BME280;47991;42.974;12.082;2022-08-06T10:43:55;97510.30;;;36.60;16.72
62038;BME280;47991;42.974;12.082;2022-08-06T10:46:24;97504.45;;;36.53;17.52
62038;BME280;47991;42.974;12.082;2022-08-06T10:48:53;97503.30;;;36.80;18.00
62038;BME280;47991;42.974;12.082;2022-08-06T10:51:21;97508.86;;;37.03;17.99
62038;BME280;47991;42.974;12.082;2022-08-06T10:53:51;97506.95;;;37.26;17.81
62038;BME280;47991;42.974;12.082;2022-08-06T10:56:19;97506.62;;;37.12;17.41
62038;BME280;47991;42.974;12.082;2022-08-06T10:58:47;97505.05;;;36.42;17.43
62038;BME280;47991;42.974;12.082;2022-08-06T11:06:51;97498.27;;;36.84;18.57
62038;BME280;47991;42.974;12.082;2022-08-06T11:09:53;97494.58;;;37.26;18.21
62038;BME280;47991;42.974;12.082;2022-08-06T11:12:31;97500.76;;;37.54;18.24
62038;BME280;47991;42.974;12.082;2022-08-06T11:15:05;97501.13;;;37.77;17.92
62038;BME280;47991;42.974;12.082;2022-08-06T11:17:44;97495.07;;;37.55;16.19
62038;BME280;47991;42.974;12.082;2022-08-06T11:25:47;97487.98;;;37.83;15.63
62038;BME280;47991;42.974;12.082;2022-08-06T11:28:19;97486.66;;;37.96;15.69
62038;BME280;47991;42.974;12.082;2022-08-06T11:30:52;97486.96;;;38.06;14.95
62038;BME280;47991;42.974;12.082;2022-08-06T11:36:10;97483.09;;;38.29;14.43
62038;BME280;47991;42.974;12.082;2022-08-06T11:46:34;97481.73;;;38.42;13.79
62038;BME280;47991;42.974;12.082;2022-08-06T11:51:51;97474.77;;;38.90;14.53
62038;BME280;47991;42.974;12.082;2022-08-06T11:54:20;97470.26;;;38.91;14.07
62038;BME280;47991;42.974;12.082;2022-08-06T11:59:30;97464.35;;;38.69;13.62
62038;BME280;47991;42.974;12.082;2022-08-06T12:02:00;97460.75;;;38.81;14.60
62038;BME280;47991;42.974;12.082;2022-08-06T12:07:24;97458.02;;;38.99;14.41
62038;BME280;47991;42.974;12.082;2022-08-06T12:10:11;97451.98;;;38.94;14.28
62038;BME280;47991;42.974;12.082;2022-08-06T12:12:44;97450.44;;;38.77;13.97
62038;BME280;47991;42.974;12.082;2022-08-06T12:17:42;97450.10;;;38.81;14.75
62038;BME280;47991;42.974;12.082;2022-08-06T12:20:09;97448.53;;;38.89;14.89
62038;BME280;47991;42.974;12.082;2022-08-06T12:22:37;97448.19;;;38.89;14.80
62038;BME280;47991;42.974;12.082;2022-08-06T12:25:07;97447.39;;;38.81;14.80
62038;BME280;47991;42.974;12.082;2022-08-06T12:27:36;97444.52;;;38.63;14.86
62038;BME280;47991;42.974;12.082;2022-08-06T12:30:04;97441.84;;;38.77;14.88
62038;BME280;47991;42.974;12.082;2022-08-06T12:32:34;97441.34;;;38.92;13.94
62038;BME280;47991;42.974;12.082;2022-08-06T12:35:09;97443.14;;;39.01;13.99
62038;BME280;47991;42.974;12.082;2022-08-06T12:37:44;97442.55;;;39.09;13.75
62038;BME280;47991;42.974;12.082;2022-08-06T12:40:15;97438.93;;;39.08;13.38
62038;BME280;47991;42.974;12.082;2022-08-06T12:45:24;97430.52;;;38.88;12.95
62038;BME280;47991;42.974;12.082;2022-08-06T12:48:09;97431.43;;;38.93;13.25
62038;BME280;47991;42.974;12.082;2022-08-06T12:50:39;97431.02;;;39.06;12.92
62038;BME280;47991;42.974;12.082;2022-08-06T12:53:12;97427.95;;;39.18;12.87
62038;BME280;47991;42.974;12.082;2022-08-06T12:55:48;97428.01;;;39.07;12.83
62038;BME280;47991;42.974;12.082;2022-08-06T12:58:19;97427.66;;;38.77;13.07
62038;BME280;47991;42.974;12.082;2022-08-06T13:00:49;97422.34;;;38.91;13.71
62038;BME280;47991;42.974;12.082;2022-08-06T13:03:18;97418.45;;;39.05;13.34
62038;BME280;47991;42.974;12.082;2022-08-06T13:05:47;97415.14;;;39.07;12.45
62038;BME280;47991;42.974;12.082;2022-08-06T13:08:16;97413.48;;;39.04;12.44
62038;BME280;47991;42.974;12.082;2022-08-06T13:10:50;97402.95;;;39.21;12.57
62038;BME280;47991;42.974;12.082;2022-08-06T13:13:18;97407.80;;;39.49;12.06
62038;BME280;47991;42.974;12.082;2022-08-06T13:16:07;97406.09;;;39.73;12.51
62038;BME280;47991;42.974;12.082;2022-08-06T13:18:35;97394.31;;;39.62;11.37
62038;BME280;47991;42.974;12.082;2022-08-06T13:21:14;97388.67;;;39.55;12.51
62038;BME280;47991;42.974;12.082;2022-08-06T13:23:46;97394.90;;;39.83;12.80
62038;BME280;47991;42.974;12.082;2022-08-06T13:26:22;97385.41;;;40.06;11.84
62038;BME280;47991;42.974;12.082;2022-08-06T13:29:11;97371.61;;;40.17;11.62
62038;BME280;47991;42.974;12.082;2022-08-06T13:31:41;97374.86;;;39.63;11.40
62038;BME280;47991;42.974;12.082;2022-08-06T13:34:12;97381.02;;;39.88;12.05
62038;BME280;47991;42.974;12.082;2022-08-06T13:36:41;97373.61;;;40.12;11.44
62038;BME280;47991;42.974;12.082;2022-08-06T13:39:28;97374.48;;;40.31;11.71
62038;BME280;47991;42.974;12.082;2022-08-06T13:42:07;97368.92;;;40.50;10.50
62038;BME280;47991;42.974;12.082;2022-08-06T13:44:38;97363.09;;;40.13;9.42
62038;BME280;47991;42.974;12.082;2022-08-06T13:47:06;97363.91;;;40.08;11.08
62038;BME280;47991;42.974;12.082;2022-08-06T13:49:34;97362.10;;;40.36;10.48
62038;BME280;47991;42.974;12.082;2022-08-06T13:52:02;97355.17;;;40.66;10.54
62038;BME280;47991;42.974;12.082;2022-08-06T13:54:30;97347.23;;;40.94;9.83
62038;BME280;47991;42.974;12.082;2022-08-06T13:56:59;97348.36;;;41.16;9.64
62038;BME280;47991;42.974;12.082;2022-08-06T13:59:28;97347.38;;;41.31;10.32
62038;BME280;47991;42.974;12.082;2022-08-06T14:01:57;97344.23;;;40.50;9.45
62038;BME280;47991;42.974;12.082;2022-08-06T14:04:25;97347.36;;;40.35;10.12
62038;BME280;47991;42.974;12.082;2022-08-06T14:06:56;97341.66;;;40.77;10.28
62038;BME280;47991;42.974;12.082;2022-08-06T14:09:27;97340.66;;;41.11;10.28
62038;BME280;47991;42.974;12.082;2022-08-06T14:11:57;97341.52;;;41.33;11.17
62038;BME280;47991;42.974;12.082;2022-08-06T14:14:27;97343.81;;;41.68;11.11
62038;BME280;47991;42.974;12.082;2022-08-06T14:16:57;97339.15;;;41.78;11.13
62038;BME280;47991;42.974;12.082;2022-08-06T14:19:26;97336.04;;;41.86;11.74
62038;BME280;47991;42.974;12.082;2022-08-06T14:21:54;97340.70;;;41.96;11.72